Time;durP1;ratioP1;P1;durP2;ratioP2;P2;SDS_P1;SDS_P2;PMS_P1;PMS_P2;Temp;Humidity;BMP_temperature;BMP_pressure;BME280_temperature;BME280_humidity;BME280_pressure;Samples;Min_cycle;Max_cycle;Signal;HPM_P1;HPM_P2
2023/04/24 10:20:54;;;;;;;4.10;2.30;;;21.30;55.50;;;;;;5127729;27;20386;-75
2023/04/24 10:23:20;;;;;;;4.28;2.40;;;21.50;56.60;;;;;;5104647;28;20024;-75
2023/04/24 10:25:49;;;;;;;3.65;1.98;;;21.60;56.50;;;;;;5107373;28;20031;-75
2023/04/24 10:28:16;;;;;;;5.35;2.47;;;21.60;56.70;;;;;;5108183;28;20069;-74
2023/04/24 10:30:43;;;;;;;4.43;2.03;;;21.60;56.70;;;;;;5070996;28;20111;-75
2023/04/24 10:33:09;;;;;;;3.92;2.30;;;21.60;56.90;;;;;;5087920;28;20063;-75
2023/04/24 10:35:39;;;;;;;3.97;2.28;;;21.60;57.00;;;;;;5088747;28;20056;-75
2023/04/24 10:38:06;;;;;;;12.30;2.45;;;21.50;57.10;;;;;;5108684;28;20081;-75
2023/04/24 10:40:34;;;;;;;6.00;2.08;;;21.50;56.60;;;;;;5108217;28;20032;-75
2023/04/24 10:43:03;;;;;;;10.43;2.05;;;21.40;54.40;;;;;;5108596;28;20055;-74
2023/04/24 10:45:29;;;;;;;10.23;2.10;;;21.30;54.50;;;;;;5108686;28;20020;-75
2023/04/24 10:48:10;;;;;;;11.85;2.70;;;21.30;54.10;;;;;;5108556;28;20026;-76
2023/04/24 10:50:52;;;;;;;14.32;2.20;;;21.30;54.70;;;;;;5106878;28;20115;-80
2023/04/24 10:53:23;;;;;;;6.68;1.90;;;21.30;54.60;;;;;;5107283;28;20165;-81
2023/04/24 10:56:01;;;;;;;14.40;2.30;;;21.20;53.70;;;;;;5107187;28;20032;-81
2023/04/24 10:58:46;;;;;;;2.60;1.48;;;21.30;52.30;;;;;;5108401;28;20055;-76
2023/04/24 11:01:26;;;;;;;9.25;1.73;;;21.30;52.80;;;;;;5106707;28;20034;-76
2023/04/24 11:04:03;;;;;;;6.57;1.67;;;21.30;53.20;;;;;;5108233;28;20511;-77
2023/04/24 11:06:38;;;;;;;6.20;2.13;;;21.30;54.10;;;;;;5108149;28;20024;-77
2023/04/24 11:09:06;;;;;;;5.97;2.78;;;21.40;53.80;;;;;;5108058;28;20028;-78
2023/04/24 11:11:32;;;;;;;8.68;2.40;;;21.40;52.40;;;;;;5107737;28;20112;-75
2023/04/24 11:13:58;;;;;;;4.63;2.13;;;21.40;53.50;;;;;;5106578;28;20024;-74
2023/04/24 11:16:44;;;;;;;7.20;2.30;;;21.40;52.30;;;;;;5107891;28;20023;-74
2023/04/24 11:19:16;;;;;;;6.78;2.20;;;21.40;53.40;;;;;;5107929;28;20086;-75
2023/04/24 11:21:57;;;;;;;12.32;2.50;;;21.50;52.30;;;;;;5094988;28;20115;-75
2023/04/24 11:24:45;;;;;;;7.80;2.65;;;21.50;51.70;;;;;;5094459;28;20032;-75
2023/04/24 11:27:22;;;;;;;6.40;2.50;;;21.50;52.00;;;;;;5083743;28;20467;-75
2023/04/24 11:29:54;;;;;;;7.03;2.35;;;21.50;52.50;;;;;;5094230;28;20024;-75
2023/04/24 11:32:36;;;;;;;9.20;2.40;;;21.50;53.00;;;;;;5092827;28;20035;-75
2023/04/24 11:35:07;;;;;;;5.60;2.08;;;21.50;53.10;;;;;;5094030;28;20020;-75
2023/04/24 11:37:48;;;;;;;6.72;2.30;;;21.50;53.00;;;;;;5093669;28;20051;-75
2023/04/24 11:40:15;;;;;;;8.05;2.50;;;21.50;53.00;;;;;;5092444;28;20043;-75
2023/04/24 11:42:43;;;;;;;5.60;2.08;;;21.50;53.20;;;;;;5093009;28;20118;-75
2023/04/24 11:45:15;;;;;;;6.72;2.28;;;21.50;53.10;;;;;;5094236;28;20090;-75
2023/04/24 11:47:41;;;;;;;6.70;2.05;;;21.50;53.20;;;;;;5093810;28;20024;-75
2023/04/24 11:50:10;;;;;;;6.38;2.33;;;21.50;53.20;;;;;;5093620;28;20032;-75
2023/04/24 11:52:45;;;;;;;6.72;2.67;;;21.50;53.30;;;;;;5093463;28;20432;-75
2023/04/24 11:55:16;;;;;;;7.28;2.70;;;21.50;53.20;;;;;;5093764;28;20047;-75
2023/04/24 11:57:44;;;;;;;4.18;2.25;;;21.50;53.40;;;;;;5092530;28;20046;-75
2023/04/24 12:00:17;;;;;;;6.53;2.38;;;21.50;53.40;;;;;;5093586;28;20396;-75
2023/04/24 12:02:43;;;;;;;8.55;2.35;;;21.50;53.40;;;;;;5093652;28;20035;-75
2023/04/24 12:05:08;;;;;;;8.75;3.17;;;21.50;53.40;;;;;;5093589;28;20027;-75
2023/04/24 12:07:44;;;;;;;6.72;2.50;;;21.50;53.40;;;;;;5093482;28;20565;-75
2023/04/24 12:10:10;;;;;;;3.70;2.05;;;21.50;53.40;;;;;;5091958;28;20119;-75
2023/04/24 12:12:36;;;;;;;4.22;2.17;;;21.50;53.50;;;;;;5091910;28;20662;-75
2023/04/24 12:15:07;;;;;;;5.78;2.00;;;21.50;53.60;;;;;;5093332;28;20031;-75
2023/04/24 12:17:34;;;;;;;6.20;2.15;;;21.50;53.60;;;;;;5093466;28;20099;-75
2023/04/24 12:20:03;;;;;;;4.47;2.53;;;21.50;53.60;;;;;;5075077;28;20038;-76
2023/04/24 12:23:01;;;;;;;4.47;2.20;;;21.50;53.70;;;;;;5091624;28;20456;-75
2023/04/24 12:25:32;;;;;;;5.07;2.30;;;21.50;53.80;;;;;;5093082;28;20107;-75
2023/04/24 12:28:04;;;;;;;6.97;2.25;;;21.50;53.80;;;;;;5093177;28;20522;-75
2023/04/24 12:30:49;;;;;;;4.47;2.28;;;21.50;53.80;;;;;;5057678;28;20035;-75
2023/04/24 12:33:19;;;;;;;5.38;2.50;;;21.50;53.80;;;;;;5090907;28;20111;-75
2023/04/24 12:35:45;;;;;;;4.38;2.47;;;21.50;53.80;;;;;;5091696;28;20024;-75
2023/04/24 12:38:13;;;;;;;5.55;2.15;;;21.50;53.80;;;;;;5091684;28;20028;-75
2023/04/24 12:40:41;;;;;;;5.90;2.15;;;21.50;53.80;;;;;;5092472;28;20032;-75
2023/04/24 12:43:18;;;;;;;4.47;2.40;;;21.50;53.80;;;;;;5092828;28;20440;-75
2023/04/24 12:45:45;;;;;;;7.00;2.60;;;21.50;53.80;;;;;;5091878;28;20039;-75
2023/04/24 12:48:11;;;;;;;4.57;2.40;;;21.50;53.80;;;;;;5058146;28;20026;-75
2023/04/24 12:50:38;;;;;;;5.60;2.33;;;21.60;53.80;;;;;;5091180;28;20032;-75
2023/04/24 12:53:04;;;;;;;6.43;2.40;;;21.50;53.70;;;;;;5092875;28;20062;-75
2023/04/24 12:55:30;;;;;;;7.13;2.40;;;21.60;53.80;;;;;;5092530;28;20048;-75
2023/04/24 12:57:56;;;;;;;4.43;2.22;;;21.60;53.80;;;;;;5092560;28;20512;-75
2023/04/24 13:00:22;;;;;;;4.93;2.60;;;21.50;53.80;;;;;;5074088;28;20032;-75
2023/04/24 13:02:47;;;;;;;4.07;2.25;;;21.50;53.80;;;;;;5092398;28;20055;-75
2023/04/24 13:05:13;;;;;;;5.35;2.28;;;21.50;53.80;;;;;;5091407;28;20058;-75
2023/04/24 13:07:39;;;;;;;4.32;2.35;;;21.50;53.90;;;;;;5091037;28;20028;-75
2023/04/24 13:10:06;;;;;;;4.65;2.38;;;21.50;53.90;;;;;;5073992;28;20389;-75
2023/04/24 13:12:32;;;;;;;4.97;2.63;;;21.50;53.80;;;;;;5057648;28;20032;-75
2023/04/24 13:14:58;;;;;;;5.15;2.47;;;21.50;53.70;;;;;;5092186;28;20032;-75
2023/04/24 13:17:24;;;;;;;6.05;2.60;;;21.50;53.70;;;;;;5090962;28;20045;-75
2023/04/24 13:19:51;;;;;;;6.05;2.47;;;21.50;53.70;;;;;;5091057;28;20043;-75
2023/04/24 13:22:18;;;;;;;6.72;2.50;;;21.50;53.70;;;;;;5090379;28;20032;-75
2023/04/24 13:24:44;;;;;;;4.22;2.55;;;21.50;53.70;;;;;;5090967;28;20072;-75
2023/04/24 13:27:10;;;;;;;7.70;2.60;;;21.50;53.70;;;;;;5074124;28;20055;-75
2023/04/24 13:29:37;;;;;;;5.57;2.60;;;21.50;53.70;;;;;;5091741;28;20040;-75
2023/04/24 13:32:03;;;;;;;6.32;2.60;;;21.50;53.70;;;;;;5091431;28;20016;-76
2023/04/24 13:34:28;;;;;;;3.42;2.40;;;21.50;53.70;;;;;;5090594;28;20027;-75
2023/04/24 13:36:56;;;;;;;6.28;2.90;;;21.60;53.80;;;;;;5090628;28;20039;-75
2023/04/24 13:39:24;;;;;;;6.30;2.40;;;21.50;53.70;;;;;;5090732;28;20055;-75
2023/04/24 13:41:50;;;;;;;4.22;2.50;;;21.50;53.80;;;;;;5091396;28;20035;-75
2023/04/24 13:44:17;;;;;;;4.57;2.60;;;21.60;53.70;;;;;;5090197;28;20069;-75
2023/04/24 13:46:44;;;;;;;5.00;2.33;;;21.60;53.60;;;;;;5091738;28;20162;-75
2023/04/24 13:49:12;;;;;;;4.40;2.25;;;21.60;53.70;;;;;;5090370;28;20405;-75
2023/04/24 13:51:38;;;;;;;4.82;2.40;;;21.50;53.60;;;;;;5091492;28;20036;-75
2023/04/24 13:54:04;;;;;;;5.78;2.42;;;21.50;53.60;;;;;;5090683;28;20024;-75
2023/04/24 13:56:30;;;;;;;5.47;2.70;;;21.60;53.80;;;;;;5073566;28;20032;-75
2023/04/24 13:58:56;;;;;;;4.50;2.50;;;21.60;53.70;;;;;;5090409;28;20040;-76
2023/04/24 14:01:25;;;;;;;4.57;2.25;;;21.50;53.60;;;;;;5091077;28;20028;-76
2023/04/24 14:03:52;;;;;;;5.10;2.60;;;21.50;53.60;;;;;;5090300;28;20032;-76
2023/04/24 14:06:21;;;;;;;4.03;2.47;;;21.50;53.50;;;;;;5091376;28;20040;-75
2023/04/24 14:08:47;;;;;;;4.53;2.40;;;21.50;53.60;;;;;;5090435;28;20041;-76
2023/04/24 14:11:13;;;;;;;6.68;2.75;;;21.50;53.60;;;;;;5089637;28;20030;-75
2023/04/24 14:13:40;;;;;;;6.43;2.53;;;21.50;53.60;;;;;;5090104;28;20099;-75
2023/04/24 14:16:06;;;;;;;5.75;2.65;;;21.50;53.50;;;;;;5073324;28;20103;-76
2023/04/24 14:18:32;;;;;;;4.60;2.80;;;21.50;53.50;;;;;;5073197;28;20107;-76
2023/04/24 14:20:58;;;;;;;5.05;2.88;;;21.50;53.50;;;;;;5073100;28;20040;-76
2023/04/24 14:23:24;;;;;;;4.05;2.60;;;21.50;53.50;;;;;;5089997;28;20528;-77
2023/04/24 14:25:52;;;;;;;4.40;2.50;;;21.50;53.50;;;;;;5056648;28;20066;-76
2023/04/24 14:28:21;;;;;;;4.07;2.60;;;21.50;53.50;;;;;;5089933;28;20080;-76
2023/04/24 14:30:47;;;;;;;4.03;2.45;;;21.50;53.50;;;;;;5089655;28;20111;-76
2023/04/24 14:33:14;;;;;;;3.58;2.47;;;21.50;53.50;;;;;;5056660;28;20089;-76
2023/04/24 14:35:44;;;;;;;4.75;2.65;;;21.50;53.60;;;;;;5073274;28;20024;-79
2023/04/24 14:38:10;;;;;;;4.72;2.60;;;21.50;53.40;;;;;;5090108;28;20024;-77
2023/04/24 14:40:37;;;;;;;4.60;2.50;;;21.50;53.70;;;;;;5089672;28;20024;-77
2023/04/24 14:43:03;;;;;;;6.47;2.60;;;21.50;53.60;;;;;;5091327;28;20040;-77
2023/04/24 14:45:29;;;;;;;4.35;2.67;;;21.50;53.50;;;;;;5091598;28;20039;-77
2023/04/24 14:47:55;;;;;;;5.82;2.70;;;21.50;53.50;;;;;;5091207;28;20028;-77
2023/04/24 14:50:21;;;;;;;4.70;2.95;;;21.60;53.50;;;;;;5089521;28;20032;-76
2023/04/24 14:52:47;;;;;;;3.97;2.65;;;21.50;53.50;;;;;;5090074;28;20099;-76
2023/04/24 14:55:14;;;;;;;4.70;2.63;;;21.50;53.40;;;;;;5091679;28;20599;-76
2023/04/24 14:57:40;;;;;;;6.40;2.70;;;21.50;53.40;;;;;;5093851;28;20059;-76
2023/04/24 15:00:08;;;;;;;5.32;2.90;;;21.50;53.40;;;;;;5093868;28;20109;-76
2023/04/24 15:02:36;;;;;;;6.47;3.03;;;21.50;53.30;;;;;;5094579;28;20071;-76
2023/04/24 15:05:03;;;;;;;5.82;2.80;;;21.50;53.30;;;;;;5094728;28;20504;-76
2023/04/24 15:07:30;;;;;;;9.65;2.97;;;21.50;53.30;;;;;;5076411;28;20105;-76
2023/04/24 15:09:56;;;;;;;4.18;2.55;;;21.50;53.90;;;;;;5076182;28;20595;-77
2023/04/24 15:12:22;;;;;;;4.55;2.90;;;21.50;53.40;;;;;;5094118;28;20032;-76
2023/04/24 15:14:48;;;;;;;6.03;3.03;;;21.50;53.30;;;;;;5093342;28;20036;-77
2023/04/24 15:17:14;;;;;;;4.10;2.70;;;21.50;53.30;;;;;;5094687;28;20439;-76
2023/04/24 15:19:40;;;;;;;5.65;3.08;;;21.50;53.30;;;;;;5094283;28;20028;-76
2023/04/24 15:22:05;;;;;;;4.03;2.38;;;21.50;53.30;;;;;;5092661;28;20398;-76
2023/04/24 15:24:31;;;;;;;5.93;2.72;;;21.50;53.30;;;;;;5094304;28;20036;-76
2023/04/24 15:26:59;;;;;;;5.78;2.97;;;21.50;53.30;;;;;;5093027;28;20028;-76
2023/04/24 15:29:26;;;;;;;5.63;2.80;;;21.50;53.20;;;;;;5094093;28;20119;-76
2023/04/24 15:31:51;;;;;;;5.25;2.70;;;21.50;53.30;;;;;;5093810;28;20024;-76
2023/04/24 15:34:17;;;;;;;4.80;2.90;;;21.50;53.30;;;;;;5076299;28;20034;-76
2023/04/24 15:36:43;;;;;;;5.70;3.30;;;21.50;53.20;;;;;;5092729;28;20025;-76
2023/04/24 15:39:09;;;;;;;4.97;2.67;;;21.50;53.40;;;;;;5094058;28;20036;-76
2023/04/24 15:41:35;;;;;;;6.00;2.80;;;21.50;53.20;;;;;;5093965;28;20028;-76
2023/04/24 15:44:01;;;;;;;5.45;3.00;;;21.50;53.20;;;;;;5094117;28;20085;-77
2023/04/24 15:46:27;;;;;;;4.18;2.63;;;21.50;53.20;;;;;;5092576;28;20039;-77
2023/04/24 15:48:53;;;;;;;6.03;2.80;;;21.50;53.20;;;;;;5093862;28;20024;-77
2023/04/24 15:51:19;;;;;;;4.40;2.80;;;21.50;53.20;;;;;;5092162;28;20031;-76
2023/04/24 15:53:45;;;;;;;7.15;2.95;;;21.50;53.20;;;;;;5092639;28;20384;-76
2023/04/24 15:56:12;;;;;;;5.55;2.72;;;21.50;53.20;;;;;;5093731;28;20107;-76
2023/04/24 15:58:37;;;;;;;4.75;2.83;;;21.50;53.20;;;;;;5092842;28;20023;-77
2023/04/24 16:01:03;;;;;;;5.68;2.70;;;21.50;53.20;;;;;;5093159;28;20035;-76
2023/04/24 16:03:29;;;;;;;4.15;2.67;;;21.50;53.20;;;;;;5093501;28;20031;-77
2023/04/24 16:05:55;;;;;;;4.70;2.72;;;21.50;53.20;;;;;;5093388;28;20030;-76
2023/04/24 16:08:21;;;;;;;4.55;2.70;;;21.50;53.30;;;;;;5093320;28;20027;-77
2023/04/24 16:10:47;;;;;;;4.97;3.17;;;21.50;53.20;;;;;;5093127;28;20024;-77
2023/04/24 16:13:14;;;;;;;4.50;2.53;;;21.50;53.20;;;;;;5093304;28;20028;-76
2023/04/24 16:15:40;;;;;;;5.80;3.10;;;21.50;53.20;;;;;;5093523;28;20016;-76
2023/04/24 16:18:06;;;;;;;4.43;2.78;;;21.50;53.20;;;;;;5093238;28;20107;-76
2023/04/24 16:20:32;;;;;;;5.13;2.92;;;21.50;53.20;;;;;;5092763;28;20046;-76
2023/04/24 16:22:58;;;;;;;4.57;2.88;;;21.50;53.20;;;;;;5093266;28;20039;-76
2023/04/24 16:25:24;;;;;;;4.50;2.42;;;21.50;53.20;;;;;;5093160;28;20031;-76
2023/04/24 16:27:51;;;;;;;4.78;2.67;;;21.50;53.20;;;;;;5093212;28;20511;-76
2023/04/24 16:30:18;;;;;;;4.90;2.95;;;21.50;53.20;;;;;;5091743;28;20059;-76
2023/04/24 16:32:44;;;;;;;5.57;3.08;;;21.50;53.20;;;;;;5092000;28;20024;-76
2023/04/24 16:35:10;;;;;;;4.38;2.90;;;21.50;53.20;;;;;;5092984;28;20027;-76
2023/04/24 16:37:35;;;;;;;5.03;2.83;;;21.50;53.30;;;;;;5092030;28;20389;-76
2023/04/24 16:40:03;;;;;;;4.53;2.83;;;21.50;53.10;;;;;;5092756;28;20506;-76
2023/04/24 16:42:28;;;;;;;5.03;2.80;;;21.50;53.70;;;;;;5091357;28;20066;-76
2023/04/24 16:44:54;;;;;;;4.55;2.90;;;21.50;53.20;;;;;;5091634;28;20048;-77
2023/04/24 16:47:20;;;;;;;4.68;3.00;;;21.50;53.20;;;;;;5091596;28;20124;-78
2023/04/24 16:49:47;;;;;;;5.43;2.85;;;21.50;53.10;;;;;;5092602;28;20024;-77
2023/04/24 16:52:13;;;;;;;5.85;3.25;;;21.50;53.10;;;;;;5091016;28;20027;-77
2023/04/24 16:54:39;;;;;;;7.18;3.05;;;21.50;53.10;;;;;;5091321;28;20498;-77
2023/04/24 16:57:06;;;;;;;4.82;2.85;;;21.50;53.10;;;;;;5091688;28;20095;-77
2023/04/24 16:59:32;;;;;;;6.53;2.90;;;21.50;53.10;;;;;;5092506;28;20477;-77
2023/04/24 17:02:00;;;;;;;4.68;2.80;;;21.50;53.10;;;;;;5092020;28;20560;-77
2023/04/24 17:04:26;;;;;;;4.90;2.70;;;21.50;53.10;;;;;;5092404;28;20032;-77
2023/04/24 17:06:52;;;;;;;3.97;2.35;;;21.50;53.20;;;;;;5091120;28;20413;-77
2023/04/24 17:09:18;;;;;;;6.35;3.10;;;21.50;53.20;;;;;;5091076;28;20111;-77
2023/04/24 17:11:44;;;;;;;5.30;2.78;;;21.50;53.20;;;;;;5091952;28;20024;-77
2023/04/24 17:14:09;;;;;;;4.88;2.75;;;21.50;53.20;;;;;;5092308;28;20555;-77
2023/04/24 17:16:36;;;;;;;3.35;2.50;;;21.50;53.20;;;;;;5092215;28;20541;-77
2023/04/24 17:19:03;;;;;;;5.72;2.70;;;21.50;53.20;;;;;;5091670;28;20032;-77
2023/04/24 17:21:29;;;;;;;4.15;2.63;;;21.50;53.20;;;;;;5090575;28;20024;-77
2023/04/24 17:23:54;;;;;;;5.45;2.72;;;21.50;53.20;;;;;;5092155;28;20024;-77
2023/04/24 17:26:20;;;;;;;4.32;2.60;;;21.50;53.20;;;;;;5092068;28;20111;-77
2023/04/24 17:28:47;;;;;;;5.85;2.70;;;21.50;53.20;;;;;;5091032;28;20242;-77
2023/04/24 17:31:12;;;;;;;4.75;2.53;;;21.50;53.30;;;;;;5091487;28;20020;-77
2023/04/24 17:33:38;;;;;;;4.72;2.65;;;21.50;53.30;;;;;;5092213;28;20027;-77
2023/04/24 17:36:05;;;;;;;4.43;2.78;;;21.50;53.20;;;;;;5092301;28;20028;-77
2023/04/24 17:38:31;;;;;;;5.40;3.10;;;21.50;53.20;;;;;;5091975;28;20554;-79
2023/04/24 17:40:59;;;;;;;4.97;2.92;;;21.50;53.20;;;;;;5091563;28;20020;-77
2023/04/24 17:43:25;;;;;;;5.32;2.95;;;21.50;53.20;;;;;;5090810;28;20024;-78
2023/04/24 17:45:55;;;;;;;5.90;2.95;;;21.50;53.20;;;;;;5090250;28;20396;-78
2023/04/24 17:48:21;;;;;;;4.13;2.63;;;21.50;53.20;;;;;;5090467;28;20378;-78
2023/04/24 17:50:47;;;;;;;4.53;2.70;;;21.50;53.20;;;;;;5091295;28;20098;-77
2023/04/24 17:53:14;;;;;;;3.90;2.65;;;21.50;53.20;;;;;;5091687;28;20355;-77
2023/04/24 17:55:42;;;;;;;5.63;2.80;;;21.50;53.30;;;;;;5091625;28;20400;-77
2023/04/24 17:58:08;;;;;;;4.93;2.75;;;21.50;53.30;;;;;;5091409;28;20028;-77
2023/04/24 18:00:34;;;;;;;3.88;2.67;;;21.50;53.30;;;;;;5091256;28;20085;-77
2023/04/24 18:03:02;;;;;;;4.35;2.67;;;21.50;53.20;;;;;;5091566;28;20454;-77
2023/04/24 18:05:32;;;;;;;4.32;2.63;;;21.50;53.30;;;;;;5091429;28;20087;-77
2023/04/24 18:07:58;;;;;;;4.72;2.65;;;21.50;53.20;;;;;;5091515;28;20202;-77
2023/04/24 18:10:25;;;;;;;6.32;2.97;;;21.50;53.20;;;;;;5089718;28;20122;-77
2023/04/24 18:12:51;;;;;;;5.00;2.60;;;21.50;53.20;;;;;;5091369;28;20388;-77
2023/04/24 18:15:18;;;;;;;14.02;3.90;;;21.50;53.20;;;;;;5090622;28;20047;-77
2023/04/24 18:17:44;;;;;;;13.80;4.28;;;21.50;53.50;;;;;;5090143;28;20077;-77
2023/04/24 18:20:12;;;;;;;10.57;4.28;;;21.60;53.40;;;;;;5089871;28;20129;-77
2023/04/24 18:22:38;;;;;;;9.93;4.22;;;21.60;53.00;;;;;;5091243;28;20072;-77
2023/04/24 18:25:04;;;;;;;11.93;3.67;;;21.60;53.30;;;;;;5085424;28;20025;-77
2023/04/24 18:27:30;;;;;;;11.40;4.13;;;21.60;53.40;;;;;;5095158;28;20028;-78
2023/04/24 18:29:57;;;;;;;14.07;4.30;;;21.60;53.70;;;;;;5080684;28;20378;-77
2023/04/24 18:32:26;;;;;;;13.15;4.70;;;21.70;53.70;;;;;;5069587;28;20062;-78
2023/04/24 18:34:52;;;;;;;13.23;4.03;;;21.70;53.50;;;;;;5099125;28;20032;-77
2023/04/24 18:37:18;;;;;;;16.63;4.70;;;21.80;53.80;;;;;;5093916;28;20031;-76
2023/04/24 18:39:43;;;;;;;19.58;4.70;;;21.70;53.70;;;;;;5095218;28;20028;-77
2023/04/24 18:42:10;;;;;;;14.07;3.63;;;21.70;53.70;;;;;;5076771;28;20668;-78
2023/04/24 18:44:40;;;;;;;10.07;4.40;;;21.70;53.80;;;;;;5094034;28;20290;-76
2023/04/24 18:47:06;;;;;;;17.90;3.40;;;21.80;53.80;;;;;;5092377;28;20025;-76
2023/04/24 18:49:33;;;;;;;13.60;3.60;;;21.80;53.80;;;;;;5088314;28;20121;-76
2023/04/24 18:51:59;;;;;;;14.35;4.07;;;21.80;54.10;;;;;;5114599;28;20454;-75
2023/04/24 18:54:25;;;;;;;9.98;3.85;;;21.80;53.80;;;;;;5096716;28;20028;-75
2023/04/24 18:56:51;;;;;;;12.70;4.03;;;21.80;53.40;;;;;;5096818;28;20072;-75
2023/04/24 18:59:18;;;;;;;17.30;4.25;;;21.70;53.50;;;;;;5112509;28;20098;-75
2023/04/24 19:01:44;;;;;;;9.43;3.67;;;21.70;53.60;;;;;;5129251;22;20455;-72
2023/04/24 19:04:10;;;;;;;14.73;4.13;;;21.60;53.70;;;;;;5080144;28;20027;-72
2023/04/24 19:06:36;;;;;;;14.60;3.85;;;21.60;53.80;;;;;;5079561;28;20466;-72
2023/04/24 19:09:02;;;;;;;8.50;4.05;;;21.60;53.80;;;;;;5114692;28;20034;-73
2023/04/24 19:11:28;;;;;;;11.38;4.50;;;21.60;53.80;;;;;;5114595;28;20099;-72
2023/04/24 19:13:54;;;;;;;7.80;3.97;;;21.60;53.80;;;;;;5115131;28;20102;-72
2023/04/24 19:16:19;;;;;;;7.25;3.15;;;21.60;53.80;;;;;;5096684;28;20464;-72
2023/04/24 19:18:45;;;;;;;9.10;3.47;;;21.50;53.80;;;;;;5114801;28;20401;-72
2023/04/24 19:21:11;;;;;;;9.98;3.55;;;21.60;53.80;;;;;;5114393;28;20072;-72
2023/04/24 19:23:39;;;;;;;9.30;4.05;;;21.50;53.70;;;;;;5096761;28;20035;-73
2023/04/24 19:26:06;;;;;;;8.38;3.70;;;21.50;53.70;;;;;;5096595;28;20388;-72
2023/04/24 19:28:32;;;;;;;9.40;3.47;;;21.50;53.70;;;;;;5114812;28;20028;-72
2023/04/24 19:30:58;;;;;;;6.78;3.40;;;21.50;53.70;;;;;;5096028;28;20023;-72
2023/04/24 19:33:25;;;;;;;10.05;3.95;;;21.50;54.20;;;;;;5114582;28;20031;-72
2023/04/24 19:35:51;;;;;;;9.50;3.58;;;21.50;53.60;;;;;;5117142;27;20019;-72
2023/04/24 19:38:17;;;;;;;19.20;3.42;;;21.50;53.50;;;;;;5119732;27;20015;-72
2023/04/24 19:40:43;;;;;;;10.68;2.78;;;21.60;54.10;;;;;;5096545;28;20130;-72
2023/04/24 19:43:09;;;;;;;10.55;3.50;;;21.60;54.20;;;;;;5108952;27;20114;-72
2023/04/24 19:45:34;;;;;;;14.38;3.83;;;21.70;54.10;;;;;;5108990;28;20023;-72
2023/04/24 19:48:00;;;;;;;9.07;3.50;;;21.70;55.50;;;;;;5114363;28;20033;-72
2023/04/24 19:50:26;;;;;;;12.15;3.60;;;21.70;57.80;;;;;;5114483;28;20629;-72
2023/04/24 19:52:52;;;;;;;13.15;4.78;;;21.80;59.10;;;;;;5114065;28;20153;-72
2023/04/24 19:55:19;;;;;;;12.98;3.95;;;21.90;60.50;;;;;;5114214;28;20102;-72
2023/04/24 19:57:44;;;;;;;18.25;4.35;;;22.00;59.10;;;;;;5114101;28;20537;-73
2023/04/24 20:00:11;;;;;;;24.67;5.20;;;22.10;57.50;;;;;;5087168;28;20349;-72
2023/04/24 20:02:37;;;;;;;7.18;3.80;;;22.10;57.00;;;;;;5076408;28;20053;-71
2023/04/24 20:05:04;;;;;;;14.85;4.10;;;22.10;57.00;;;;;;5112190;27;20024;-71
2023/04/24 20:07:30;;;;;;;6.55;3.60;;;22.10;56.80;;;;;;5090084;28;20127;-71
2023/04/24 20:09:56;;;;;;;12.23;3.63;;;22.10;56.70;;;;;;5089491;28;20110;-72
2023/04/24 20:12:21;;;;;;;7.35;3.70;;;22.00;56.60;;;;;;5111560;28;20093;-71
2023/04/24 20:14:47;;;;;;;7.50;3.45;;;22.00;56.80;;;;;;5078151;28;20051;-72
2023/04/24 20:17:15;;;;;;;11.52;3.72;;;22.00;56.60;;;;;;5111914;28;20019;-72
2023/04/24 20:19:41;;;;;;;9.77;3.60;;;22.00;56.70;;;;;;5111593;28;20102;-74
2023/04/24 20:22:08;;;;;;;9.13;4.03;;;22.00;56.60;;;;;;5110872;27;20490;-72
2023/04/24 20:24:34;;;;;;;8.65;3.83;;;21.90;56.60;;;;;;5093237;28;20410;-72
2023/04/24 20:27:01;;;;;;;11.68;3.92;;;21.90;56.50;;;;;;5112499;27;20030;-72
2023/04/24 20:29:27;;;;;;;9.32;3.58;;;21.90;56.70;;;;;;5110973;28;20028;-72
2023/04/24 20:31:53;;;;;;;8.18;3.50;;;21.90;56.60;;;;;;5090355;28;20020;-73
2023/04/24 20:34:20;;;;;;;7.57;3.40;;;21.90;56.60;;;;;;5112093;27;20513;-72
2023/04/24 20:36:46;;;;;;;10.82;3.63;;;21.80;56.60;;;;;;5111976;27;20027;-72
2023/04/24 20:39:12;;;;;;;7.53;3.42;;;21.90;56.60;;;;;;5075693;28;20402;-72
2023/04/24 20:41:38;;;;;;;6.40;3.47;;;21.80;56.30;;;;;;5106610;28;20080;-71
2023/04/24 20:44:04;;;;;;;7.97;3.17;;;21.80;56.50;;;;;;5092286;28;20481;-73
2023/04/24 20:46:30;;;;;;;8.98;3.63;;;21.80;56.50;;;;;;5074028;28;20627;-72
2023/04/24 20:48:56;;;;;;;6.63;2.88;;;21.80;56.60;;;;;;5072934;28;20123;-72
2023/04/24 20:51:22;;;;;;;7.13;3.45;;;21.80;55.70;;;;;;5110397;28;20776;-72
2023/04/24 20:53:48;;;;;;;9.05;3.25;;;21.80;56.70;;;;;;5090871;28;20031;-71
2023/04/24 20:56:15;;;;;;;6.47;3.53;;;21.80;56.70;;;;;;5068987;28;20031;-72
2023/04/24 20:58:43;;;;;;;10.57;3.20;;;21.80;56.60;;;;;;5070664;28;20093;-72
2023/04/24 21:01:09;;;;;;;7.88;3.20;;;21.70;56.20;;;;;;5075061;28;20031;-72
2023/04/24 21:03:35;;;;;;;6.55;3.08;;;21.80;56.50;;;;;;5092795;28;20023;-71
2023/04/24 21:06:01;;;;;;;6.43;3.10;;;21.80;56.50;;;;;;5110920;28;20024;-72
2023/04/24 21:08:27;;;;;;;7.43;3.30;;;21.80;56.60;;;;;;5072512;28;20024;-72
2023/04/24 21:10:52;;;;;;;7.97;3.70;;;21.80;56.60;;;;;;5109741;28;20027;-71
2023/04/24 21:13:18;;;;;;;7.25;3.08;;;21.80;56.60;;;;;;5106206;28;20035;-72
2023/04/24 21:15:44;;;;;;;7.65;3.13;;;21.70;56.40;;;;;;5110877;28;20026;-72
2023/04/24 21:18:10;;;;;;;4.75;2.63;;;21.80;57.10;;;;;;5092393;28;20032;-71
2023/04/24 21:20:36;;;;;;;5.82;3.00;;;21.80;56.50;;;;;;5110263;28;20034;-72
2023/04/24 21:23:02;;;;;;;7.53;3.38;;;21.80;56.40;;;;;;5073236;28;20036;-71
2023/04/24 21:25:28;;;;;;;9.38;3.08;;;21.80;56.60;;;;;;5110123;28;20080;-72
2023/04/24 21:27:55;;;;;;;5.93;3.35;;;21.70;56.30;;;;;;5075641;28;20034;-72
2023/04/24 21:30:21;;;;;;;6.35;3.22;;;21.70;56.50;;;;;;5112751;27;20034;-72
2023/04/24 21:32:47;;;;;;;6.53;3.20;;;21.70;56.40;;;;;;5090267;28;20393;-72
2023/04/24 21:35:13;;;;;;;7.95;3.00;;;21.70;56.00;;;;;;5092330;28;20020;-72
2023/04/24 21:37:39;;;;;;;7.63;3.08;;;21.70;55.50;;;;;;5092352;28;20042;-72
2023/04/24 21:40:06;;;;;;;6.13;2.90;;;21.70;55.70;;;;;;5110399;28;20035;-72
2023/04/24 21:42:32;;;;;;;5.95;2.67;;;21.70;55.60;;;;;;5075587;27;20027;-72
2023/04/24 21:44:58;;;;;;;5.00;2.67;;;21.70;56.30;;;;;;5113071;27;20447;-71
2023/04/24 21:47:23;;;;;;;8.10;2.97;;;21.70;56.10;;;;;;5090192;28;20028;-71
2023/04/24 21:49:49;;;;;;;4.32;2.70;;;21.70;56.20;;;;;;5110125;28;20032;-72
2023/04/24 21:52:15;;;;;;;5.22;2.78;;;21.70;55.30;;;;;;5110445;27;20038;-72
2023/04/24 21:54:40;;;;;;;6.32;2.72;;;21.70;55.10;;;;;;5109674;28;20388;-72
2023/04/24 21:57:06;;;;;;;4.20;2.47;;;21.70;56.10;;;;;;5087726;28;20411;-71
2023/04/24 21:59:33;;;;;;;5.75;2.80;;;21.70;56.10;;;;;;5074233;28;20091;-72
2023/04/24 22:01:59;;;;;;;5.50;2.85;;;21.70;56.00;;;;;;5109642;28;20130;-72
2023/04/24 22:04:26;;;;;;;8.55;2.80;;;21.70;55.90;;;;;;5087975;28;20119;-72
2023/04/24 22:06:54;;;;;;;8.30;2.92;;;21.70;56.50;;;;;;5109723;28;20059;-72
2023/04/24 22:09:20;;;;;;;25.42;4.00;;;21.70;54.80;;;;;;5090841;28;20024;-73
2023/04/24 22:11:47;;;;;;;5.60;2.20;;;21.70;56.10;;;;;;5111873;28;20027;-73
2023/04/24 22:14:13;;;;;;;5.97;2.80;;;21.70;55.50;;;;;;5109907;28;20020;-72
2023/04/24 22:16:40;;;;;;;5.15;2.50;;;21.70;56.10;;;;;;5111179;28;20024;-71
2023/04/24 22:19:07;;;;;;;5.40;2.70;;;21.70;56.20;;;;;;5090372;28;20028;-72
2023/04/24 22:21:33;;;;;;;6.75;2.78;;;21.70;54.70;;;;;;5109700;28;20027;-72
2023/04/24 22:23:58;;;;;;;7.20;2.67;;;21.70;54.60;;;;;;5109914;28;20035;-72
2023/04/24 22:26:24;;;;;;;5.97;2.70;;;21.70;54.60;;;;;;5109375;28;20054;-72
2023/04/24 22:28:52;;;;;;;7.72;2.60;;;21.70;54.60;;;;;;5109786;28;20031;-71
2023/04/24 22:31:18;;;;;;;6.95;2.60;;;21.70;54.80;;;;;;5109704;28;20541;-72
2023/04/24 22:33:45;;;;;;;4.57;2.47;;;21.70;54.90;;;;;;5088000;28;20028;-72
2023/04/24 22:36:11;;;;;;;4.93;2.50;;;21.70;54.70;;;;;;5057856;28;20126;-72
2023/04/24 22:38:37;;;;;;;7.85;2.65;;;21.70;55.60;;;;;;5089648;28;20385;-72
2023/04/24 22:41:03;;;;;;;5.40;2.47;;;21.60;55.40;;;;;;5090287;28;20424;-72
2023/04/24 22:43:30;;;;;;;5.80;2.65;;;21.60;54.80;;;;;;5091435;28;20446;-72
2023/04/24 22:45:56;;;;;;;4.78;2.67;;;21.70;55.30;;;;;;5091167;28;20023;-72
2023/04/24 22:48:23;;;;;;;5.75;2.53;;;21.70;54.80;;;;;;5104938;28;20040;-71
2023/04/24 22:50:51;;;;;;;5.68;2.70;;;21.60;55.90;;;;;;5109292;28;20119;-71
2023/04/24 22:53:17;;;;;;;4.90;2.42;;;21.70;55.50;;;;;;5074956;28;20036;-72
2023/04/24 22:55:43;;;;;;;11.00;2.72;;;21.70;56.00;;;;;;5091288;28;20024;-72
2023/04/24 22:58:09;;;;;;;3.60;2.30;;;21.70;56.30;;;;;;5090717;28;20043;-72
2023/04/24 23:00:36;;;;;;;5.82;2.67;;;21.70;56.00;;;;;;5089604;28;20031;-71
2023/04/24 23:03:02;;;;;;;5.13;2.10;;;21.70;55.70;;;;;;5089360;28;20027;-71
2023/04/24 23:05:28;;;;;;;4.10;2.40;;;21.70;56.10;;;;;;5083976;28;20024;-71